Dickinson, ND

7:24 AM MDT on July 22, 2017 (GMT -0600)
Southview | | Change Station
Active Advisory: Fire Weather Warning

Elev 2434 ft 46.86 °N, 102.78 °W | Updated 5 seconds ago

Clear
Clear
68.4 °F
Feels Like 68.4 °F
N
0.0
Wind Variable Wind from SSW

Today
High -- | Low -- °F
--% Chance of Precip.
Yesterday
High -- | Low -- °F
Precip. -- in
Pressure 29.95 in
Visibility 10.0 miles
Clouds Clear
Dew Point 50 °F
Humidity 53%
Rainfall 0.00 in
Snow Depth Not available.
5:19 AM 8:35 PM
Waning Crescent, 1% visible
METAR KDIK 221256Z AUTO 23003KT 10SM CLR 17/11 A3000 RMK AO2 SLP140 T01670111
Pressure 29.95 in
Visibility 10.0 miles
Clouds Clear
Dew Point 50 °F
Humidity 53%
Rainfall 0.00 in
Snow Depth Not available.
5:19 AM 8:35 PM
Waning Crescent, 1% visible
METAR KDIK 221256Z AUTO 23003KT 10SM CLR 17/11 A3000 RMK AO2 SLP140 T01670111

Get Your Daily Forecast Email!

Thanks for signing up!

Be on the lookout for a verification email in your inbox.

You'll start receiving severe weather alerts in your inbox..

×

10-Day Weather Forecast

Almanac

Astronomy

Jul. 22, 2017 Rise Set
Actual Time
Civil Twilight
Nautical Twilight
Astronomical Twilight
Moon
Length of Visible Light
Length of Day
Tomorrow will be .
, % of the Moon is Illuminated

Today's Extremes

State Highs State Lows

Community

WunderPhotos

Category 6

Welcome to Category 6. This is the collective home for Weather Underground's featured writeups by Dr. Jeff Masters (right), Bob Henson (left), Chris Burt, and other regular contributors.

Nearby

Air Quality

  Air Quality AQ Index Pollutant
Not available.

Snow Depth

Station Depth Elevation

Earthquake Activity

City Distance Mag. Time & Date
Minimum magnitude displayed is 2.5.

Coastal Water Temperatures

Place Temperature

Stations

Nearby Weather Stations

Station Location Temp. Windchill Dew Point Humidity Wind Precip. Elev Updated Type
                   

Watches & Warnings

Fire Weather Warning
Issued: 3:22 AM MDT Jul. 22, 2017 – National Weather Service

... Red flag warning in effect from noon CDT /11 am MDT/ today to
9 PM CDT /8 PM MDT/ this evening for strong winds, low relative
humidities, and very dry fuels...

The National Weather Service in Bismarck has issued a red flag
warning, which is in effect from noon CDT /11 am MDT/ today to
9 PM CDT /8 PM MDT/ this evening. The Fire Weather Watch is no
longer in effect.

* Affected area... Golden Valley, Billings, Stark, slope,
Hettinger, Grant, Bowman, Adams, and Sioux counties.

* Wind... northwest winds between 20 and 30 mph.

* Humidity... minimum relative humidity between 15 and 20
percent.

* Temperatures... highs in the upper 80s.

* Impacts... any fires that develop could spread rapidly.

Precautionary/preparedness actions...

A red flag warning means that critical fire weather conditions
will occur, which can contribute to extreme fire behavior.



KS